Buffalo, North Dakota
Current Conditions -  °F | °C
As of 6:35 PM on Monday 24 Nov 2014 (Local Time) from KBAC Reporting Station
Clear Clear  
Wind Chill: -3°   Ceiling: Unl
Heat Index: 12°   Visibility: 10mi
Dew Point:   Wind: 14mph
Humidity: 73%   Direction: 310°NW
Pressure: 29.96"   Gusts: NA
Location:  46.92°N, 97.55°W
Report Text: KBAC 250035Z AUTO 31012KT 10SM CLR M11/M15 A2996 RMK AO2
Loading
Personal Weather Stations






























Interactive Weather Map New forecast layout! Learn more

10-Day Weather Forecast

Advertisements
Track Severe Weather on mobile